Terminal Aerodrome Forecast
Issued by NWS

Home | Current Version | Previous Version | Text Only | Print | Product List | Glossary On
Versions: 1 2 3 4 5 6 7 8 9 10 11 12 13 14 15 16 17 18
000
FTUS46 KLOX 271010 AAA
TAFPMD
TAF AMD
KPMD 271010Z 2710/2806 24015G25KT P6SM SCT060
     FM271200 26015G22KT P6SM BKN040 BKN080
     FM272200 26015G25KT P6SM BKN040 BKN100
     FM280400 26012KT P6SM SCT050 BKN100=

USA.gov is the U.S. government's official web portal to all federal, state and local government web resources and services.